Time;durP1;ratioP1;P1;durP2;ratioP2;P2;SDS_P1;SDS_P2;PMS_P1;PMS_P2;Temp;Humidity;BMP_temperature;BMP_pressure;BME280_temperature;BME280_humidity;BME280_pressure;Samples;Min_cycle;Max_cycle;Signal;HPM_P1;HPM_P2
2023/10/24 00:00:49;;;;;;;4.90;4.60;;;11.10;99.90;;;11.75;100.00;97081.00;10454988;22;20217;-61
2023/10/24 00:05:53;;;;;;;4.70;4.40;;;11.00;99.90;;;11.78;100.00;97078.56;10438998;28;20225;-62
2023/10/24 00:11:02;;;;;;;5.25;4.75;;;11.10;99.90;;;11.77;100.00;97064.03;10437319;28;20233;-62
2023/10/24 00:16:07;;;;;;;7.03;4.55;;;11.10;99.90;;;11.81;100.00;97068.44;10413063;28;20222;-62
2023/10/24 00:21:10;;;;;;;4.80;4.40;;;11.10;99.90;;;11.75;100.00;97060.53;10402876;28;20233;-63
2023/10/24 00:26:13;;;;;;;5.60;5.05;;;11.00;99.90;;;11.60;100.00;97046.31;10409831;28;20460;-63
2023/10/24 00:31:18;;;;;;;5.97;5.32;;;11.00;99.90;;;11.60;100.00;97045.44;10407966;28;20248;-61
2023/10/24 00:36:21;;;;;;;5.40;4.93;;;11.00;99.90;;;11.61;100.00;97045.47;10415074;28;20233;-62
2023/10/24 00:41:24;;;;;;;5.57;5.07;;;10.90;99.90;;;11.68;100.00;97060.28;10411437;28;20233;-63
2023/10/24 00:46:30;;;;;;;5.57;5.15;;;11.00;99.90;;;11.71;100.00;97062.09;10410593;28;20599;-62
2023/10/24 00:51:33;;;;;;;6.53;5.50;;;11.00;99.90;;;11.69;100.00;97062.00;10411590;28;20613;-61
2023/10/24 00:56:37;;;;;;;5.72;5.22;;;11.00;99.90;;;11.65;100.00;97057.59;10408961;28;20232;-62
2023/10/24 01:01:42;;;;;;;5.97;5.50;;;11.00;99.90;;;11.72;100.00;97069.81;10409523;28;20705;-62
2023/10/24 01:06:45;;;;;;;5.40;5.00;;;11.00;99.90;;;11.69;100.00;97062.00;10406746;28;20221;-61
2023/10/24 01:11:49;;;;;;;5.75;5.35;;;11.00;99.90;;;11.67;100.00;97060.22;10410597;28;20237;-62
2023/10/24 01:16:53;;;;;;;6.28;5.68;;;11.00;99.90;;;11.64;100.00;97043.03;10408339;28;20225;-62
2023/10/24 01:21:58;;;;;;;7.05;5.90;;;10.90;99.90;;;11.66;100.00;97038.00;10413872;28;20256;-61
2023/10/24 01:27:01;;;;;;;6.70;6.07;;;10.90;99.90;;;11.62;100.00;97031.88;10404633;28;20764;-62
2023/10/24 01:32:05;;;;;;;5.55;5.05;;;10.90;99.90;;;11.66;100.00;97013.25;10407031;28;20226;-62
2023/10/24 01:37:09;;;;;;;6.13;5.60;;;10.90;99.90;;;11.66;100.00;97028.63;10409893;28;20232;-63
2023/10/24 01:42:12;;;;;;;5.28;4.80;;;11.00;99.90;;;11.75;100.00;97022.13;10407069;28;20233;-62
2023/10/24 01:47:15;;;;;;;5.35;4.68;;;10.90;99.90;;;11.63;100.00;97025.06;10400980;28;20591;-61
2023/10/24 01:52:20;;;;;;;5.80;5.30;;;10.90;99.90;;;11.64;100.00;97045.59;10412356;28;20225;-62
2023/10/24 01:57:23;;;;;;;5.10;4.80;;;10.90;99.90;;;11.67;100.00;97038.03;10408452;28;20216;-63
2023/10/24 02:02:26;;;;;;;5.40;4.90;;;10.90;99.90;;;11.65;100.00;97029.44;10411167;28;20233;-62
2023/10/24 02:07:31;;;;;;;4.93;4.53;;;10.90;99.90;;;11.62;100.00;97010.53;10407543;28;20605;-63
2023/10/24 02:12:36;;;;;;;5.10;4.70;;;10.90;99.90;;;11.69;100.00;97023.63;10404303;28;20241;-62
2023/10/24 02:17:41;;;;;;;6.22;5.47;;;10.90;99.90;;;11.64;100.00;97032.78;10408755;28;20221;-62
2023/10/24 02:22:49;;;;;;;5.05;4.63;;;10.90;99.90;;;11.59;100.00;97033.44;10409538;28;20244;-63
2023/10/24 02:27:53;;;;;;;4.57;4.28;;;10.90;99.90;;;11.59;100.00;97034.31;10408942;28;20238;-62
2023/10/24 02:33:00;;;;;;;5.47;4.97;;;10.90;99.90;;;11.68;100.00;97046.63;10403684;28;20241;-63
2023/10/24 02:38:06;;;;;;;5.25;4.85;;;11.00;99.90;;;11.69;100.00;97036.41;10407184;28;20228;-62
2023/10/24 02:43:09;;;;;;;6.22;5.10;;;11.00;99.90;;;11.68;100.00;97027.00;10406418;28;20303;-62
2023/10/24 02:48:12;;;;;;;5.68;5.28;;;11.00;99.90;;;11.68;100.00;97033.81;10404497;28;20279;-62
2023/10/24 02:53:17;;;;;;;5.13;4.60;;;10.90;99.90;;;11.62;100.00;97044.69;10412174;28;20686;-61
2023/10/24 02:58:22;;;;;;;6.55;5.00;;;10.90;99.90;;;11.55;100.00;97042.69;10414636;28;20729;-62
2023/10/24 03:03:25;;;;;;;5.68;5.18;;;10.80;99.90;;;11.57;100.00;97041.06;10414075;28;20779;-63
2023/10/24 03:08:30;;;;;;;5.68;5.28;;;10.90;99.90;;;11.60;100.00;97032.63;10418465;28;20233;-62
2023/10/24 03:13:33;;;;;;;5.38;4.97;;;10.90;99.90;;;11.52;100.00;97032.31;10417913;28;20286;-62
2023/10/24 03:18:36;;;;;;;4.93;4.53;;;10.90;99.90;;;11.62;100.00;97029.31;10415461;28;20221;-62
2023/10/24 03:23:41;;;;;;;5.90;5.40;;;10.90;99.90;;;11.63;100.00;97025.94;10418097;28;20240;-62
2023/10/24 03:28:45;;;;;;;5.75;5.18;;;10.90;99.90;;;11.61;100.00;97032.69;10412478;28;20575;-62
2023/10/24 03:33:48;;;;;;;5.45;4.60;;;10.90;99.90;;;11.61;100.00;97011.34;10414233;28;20559;-62
2023/10/24 03:38:52;;;;;;;5.38;4.75;;;10.90;99.90;;;11.59;100.00;97008.72;10414675;28;20240;-63
2023/10/24 03:43:56;;;;;;;5.47;5.07;;;10.90;99.90;;;11.56;100.00;96998.38;10417784;28;20614;-62
2023/10/24 03:48:59;;;;;;;5.32;4.40;;;10.90;99.90;;;11.47;100.00;96992.88;10413927;28;20253;-62
2023/10/24 03:54:04;;;;;;;5.10;4.70;;;10.80;99.90;;;11.64;100.00;97002.09;10412706;28;20226;-63
2023/10/24 03:59:08;;;;;;;5.40;5.00;;;10.90;99.90;;;11.44;100.00;96982.53;10413001;28;20213;-63
2023/10/24 04:04:11;;;;;;;6.10;5.55;;;10.80;99.90;;;11.38;100.00;96974.59;10412652;28;20261;-63
2023/10/24 04:09:15;;;;;;;7.00;5.47;;;10.80;99.90;;;11.39;100.00;96973.78;10411122;28;20578;-62
2023/10/24 04:14:38;;;;;;;6.65;6.15;;;10.80;99.90;;;11.36;100.00;96963.44;10414639;28;20295;-63
2023/10/24 04:19:42;;;;;;;7.30;6.15;;;10.70;99.90;;;11.46;100.00;96939.97;10414886;28;20237;-62
2023/10/24 04:24:46;;;;;;;5.88;5.35;;;10.80;99.90;;;11.46;100.00;96957.88;10409554;28;20665;-63
2023/10/24 04:29:49;;;;;;;5.70;5.30;;;10.80;99.90;;;11.52;100.00;96952.13;10406805;28;20222;-62
2023/10/24 04:34:52;;;;;;;6.43;4.63;;;10.90;99.90;;;11.52;100.00;96960.66;10406142;28;20233;-63
2023/10/24 04:39:57;;;;;;;5.82;5.40;;;10.80;99.90;;;11.49;100.00;96951.19;10411139;28;20229;-62
2023/10/24 04:45:00;;;;;;;5.90;5.50;;;10.80;99.90;;;11.56;100.00;96960.00;10410021;28;20229;-62
2023/10/24 04:50:04;;;;;;;5.75;5.25;;;10.90;99.90;;;11.58;100.00;96967.72;10410615;28;20228;-63
2023/10/24 04:55:10;;;;;;;7.68;6.97;;;10.90;99.90;;;11.57;100.00;96959.16;10403790;28;20230;-63
2023/10/24 05:00:13;;;;;;;9.18;6.45;;;10.90;99.90;;;11.62;100.00;96957.66;10406751;28;20713;-63
2023/10/24 05:05:16;;;;;;;7.32;6.68;;;10.90;99.90;;;11.37;100.00;96935.38;10408503;28;20722;-62
2023/10/24 05:10:21;;;;;;;6.22;5.63;;;10.70;99.90;;;11.47;100.00;96916.09;10393713;28;20222;-62
2023/10/24 05:15:24;;;;;;;6.03;5.45;;;10.80;99.90;;;11.43;100.00;96921.94;10398085;28;20279;-62
2023/10/24 05:20:27;;;;;;;7.15;6.50;;;10.80;99.90;;;11.53;100.00;96921.44;10402561;28;20595;-62
2023/10/24 05:25:32;;;;;;;5.72;5.22;;;10.80;99.90;;;11.59;100.00;96920.81;10400283;28;20229;-63
2023/10/24 05:30:39;;;;;;;5.43;4.93;;;10.90;99.90;;;11.57;100.00;96912.22;10405093;28;20367;-63
2023/10/24 05:35:48;;;;;;;5.03;4.55;;;10.90;99.90;;;11.55;100.00;96889.13;10399004;28;20634;-63
2023/10/24 05:40:53;;;;;;;4.90;4.50;;;10.90;99.90;;;11.49;100.00;96888.91;10399669;28;20700;-62
2023/10/24 05:45:56;;;;;;;7.07;5.63;;;10.80;99.90;;;11.46;100.00;96886.22;10398045;28;20249;-62
2023/10/24 05:50:59;;;;;;;5.30;4.90;;;10.80;99.90;;;11.50;100.00;96875.28;10400713;28;20236;-62
2023/10/24 05:56:05;;;;;;;6.25;5.65;;;10.90;99.90;;;11.49;100.00;96881.22;10401151;28;20316;-65
2023/10/24 06:01:08;;;;;;;5.97;5.43;;;10.80;99.90;;;11.43;100.00;96879.31;10402664;28;20232;-62
2023/10/24 06:06:11;;;;;;;5.25;4.70;;;10.80;99.90;;;11.39;100.00;96897.03;10400227;28;20303;-62
2023/10/24 06:11:16;;;;;;;5.15;4.55;;;10.70;99.90;;;11.41;100.00;96898.84;10400598;28;20220;-63
2023/10/24 06:16:19;;;;;;;6.30;5.70;;;10.70;99.90;;;11.40;100.00;96888.56;10399747;28;20229;-63
2023/10/24 06:21:22;;;;;;;8.57;6.13;;;10.70;99.90;;;11.46;100.00;96883.66;10399979;28;20269;-62
2023/10/24 06:26:27;;;;;;;5.70;5.25;;;10.70;99.90;;;11.47;100.00;96916.09;10395658;28;20229;-63
2023/10/24 06:31:30;;;;;;;6.50;5.75;;;10.80;99.90;;;11.52;100.00;96909.47;10407012;28;20229;-63
2023/10/24 06:36:34;;;;;;;5.63;5.13;;;10.90;99.90;;;11.52;100.00;96913.72;10413905;28;20225;-62
2023/10/24 06:41:39;;;;;;;5.55;5.05;;;10.90;99.90;;;11.61;100.00;96893.59;10416350;28;21121;-62
2023/10/24 06:46:42;;;;;;;6.05;5.55;;;10.90;99.90;;;11.66;100.00;96869.91;10415131;28;20218;-62
2023/10/24 06:51:46;;;;;;;5.65;5.00;;;11.00;99.90;;;11.72;100.00;96877.81;10412584;28;20240;-62
2023/10/24 06:56:50;;;;;;;6.45;5.93;;;11.00;99.90;;;11.79;100.00;96876.38;10408794;28;20228;-63
2023/10/24 07:01:53;;;;;;;6.07;5.57;;;11.00;99.90;;;11.81;100.00;96881.53;10414554;28;20235;-63
2023/10/24 07:06:57;;;;;;;6.20;5.60;;;11.00;99.90;;;11.88;100.00;96892.09;10415115;28;20221;-63
2023/10/24 07:12:01;;;;;;;5.47;4.97;;;11.10;99.90;;;11.92;100.00;96877.72;10410535;28;20240;-63
2023/10/24 07:17:04;;;;;;;5.88;4.57;;;11.10;99.90;;;11.90;100.00;96879.34;10410808;28;20226;-63
2023/10/24 07:22:07;;;;;;;5.43;4.90;;;11.10;99.90;;;11.87;100.00;96881.78;10413012;28;20218;-64
2023/10/24 07:27:12;;;;;;;5.15;4.65;;;11.10;99.90;;;11.88;100.00;96886.09;10412246;28;20730;-62
2023/10/24 07:32:15;;;;;;;5.30;4.80;;;11.20;99.90;;;11.94;100.00;96878.66;10412204;28;20240;-62
2023/10/24 07:37:19;;;;;;;5.00;4.47;;;11.20;99.90;;;12.00;100.00;96885.69;10418216;28;20257;-62
2023/10/24 07:42:23;;;;;;;5.90;4.78;;;11.30;99.90;;;12.01;100.00;96862.66;10414016;28;20727;-63
2023/10/24 07:47:27;;;;;;;5.60;5.10;;;11.30;99.90;;;12.08;100.00;96846.72;10418334;28;20221;-63
2023/10/24 07:52:30;;;;;;;5.85;5.25;;;11.30;99.90;;;12.16;100.00;96835.03;10416516;28;20312;-63
2023/10/24 07:57:35;;;;;;;7.28;6.68;;;11.30;99.90;;;12.25;100.00;96856.66;10410949;28;20224;-63
2023/10/24 08:02:38;;;;;;;7.45;6.78;;;11.40;99.90;;;12.25;100.00;96869.47;10411673;28;20233;-62
2023/10/24 08:07:41;;;;;;;7.88;7.10;;;11.40;99.90;;;12.20;100.00;96878.69;10413699;28;21864;-63
2023/10/24 08:12:46;;;;;;;7.25;6.65;;;11.40;99.90;;;12.16;100.00;96896.53;10418872;28;20226;-62
2023/10/24 08:17:49;;;;;;;7.25;6.55;;;11.40;99.90;;;12.15;100.00;96886.19;10407703;28;20236;-62
2023/10/24 08:22:53;;;;;;;7.40;6.63;;;11.40;99.90;;;12.25;100.00;96906.22;10415701;28;20837;-62
2023/10/24 08:27:57;;;;;;;7.20;5.68;;;11.50;99.90;;;12.35;100.00;96904.81;10411313;28;20269;-62
2023/10/24 08:33:01;;;;;;;7.75;7.05;;;11.60;99.90;;;12.58;100.00;96916.72;10413244;28;20325;-62
2023/10/24 08:38:04;;;;;;;9.80;9.00;;;11.70;99.90;;;12.51;100.00;96926.75;10408650;28;20222;-61
2023/10/24 08:43:09;;;;;;;8.90;8.00;;;11.70;99.90;;;12.42;100.00;96919.63;10409690;28;20232;-62
2023/10/24 08:48:12;;;;;;;7.78;7.05;;;11.70;99.90;;;12.34;100.00;96918.47;10409626;28;20221;-65
2023/10/24 08:53:15;;;;;;;7.15;6.50;;;11.70;99.90;;;12.38;100.00;96928.00;10405058;28;20234;-62
2023/10/24 08:58:21;;;;;;;6.82;6.20;;;11.70;99.90;;;12.41;100.00;96935.78;10414403;28;20228;-62
2023/10/24 09:03:25;;;;;;;7.53;6.00;;;11.70;99.90;;;12.41;100.00;96933.22;10396526;28;20701;-63
2023/10/24 09:08:28;;;;;;;36.90;10.68;;;11.70;99.90;;;12.42;100.00;96932.44;10410075;28;20315;-63
2023/10/24 09:13:35;;;;;;;9.55;6.68;;;11.80;99.90;;;12.42;100.00;96935.00;10406307;28;20303;-62
2023/10/24 09:18:39;;;;;;;7.25;6.63;;;11.80;99.90;;;12.41;100.00;96943.47;10407749;28;20221;-62
2023/10/24 09:23:42;;;;;;;7.55;6.90;;;11.80;99.90;;;12.37;100.00;96944.19;10412724;28;20234;-62
2023/10/24 09:28:56;;;;;;;8.68;7.78;;;11.70;99.90;;;12.32;100.00;96932.91;10407259;28;20225;-60
2023/10/24 09:34:00;;;;;;;8.88;7.30;;;11.80;99.90;;;12.26;100.00;96930.13;10405038;28;20220;-61
2023/10/24 09:39:03;;;;;;;8.05;7.25;;;11.80;99.90;;;12.35;100.00;96936.44;10409777;28;20221;-60
2023/10/24 09:44:09;;;;;;;8.07;7.30;;;11.80;99.90;;;12.37;100.00;96936.50;10403166;28;20229;-61
2023/10/24 09:49:13;;;;;;;8.77;7.90;;;11.80;99.90;;;12.40;100.00;96936.63;10409220;28;20239;-61
2023/10/24 09:54:17;;;;;;;9.98;8.95;;;11.80;99.90;;;12.38;100.00;96928.00;10409531;28;20598;-62
2023/10/24 09:59:23;;;;;;;13.23;11.00;;;11.80;99.90;;;12.39;100.00;96922.94;10405218;28;20744;-61
2023/10/24 10:04:27;;;;;;;10.15;9.25;;;11.80;99.90;;;12.36;100.00;96916.81;10405837;28;20229;-62
2023/10/24 10:09:31;;;;;;;11.32;10.20;;;11.80;99.90;;;12.42;100.00;96924.75;10403558;28;20657;-61
2023/10/24 10:14:45;;;;;;;10.75;9.73;;;11.80;99.90;;;12.44;100.00;96930.78;10414030;22;20722;-66
2023/10/24 10:20:07;;;;;;;13.95;11.55;;;11.80;99.90;;;12.44;100.00;96935.03;10389867;28;20761;-66
2023/10/24 10:25:45;;;;;;;12.63;11.43;;;11.80;99.90;;;12.35;100.00;96925.34;10381532;28;20795;-66
2023/10/24 10:31:00;;;;;;;11.10;10.00;;;11.80;99.90;;;12.39;100.00;96919.50;10325078;28;20227;-66
2023/10/24 10:36:26;;;;;;;12.18;10.98;;;11.90;99.90;;;12.50;100.00;96913.03;10326761;28;20313;-66
2023/10/24 10:41:38;;;;;;;12.63;11.43;;;12.00;99.90;;;12.59;100.00;96912.47;10325900;28;20536;-66
2023/10/24 10:46:42;;;;;;;11.57;10.48;;;12.10;99.90;;;12.69;100.00;96893.16;10325403;28;20226;-66
2023/10/24 10:51:45;;;;;;;13.48;12.18;;;12.20;99.90;;;12.63;100.00;96889.56;10323991;28;20230;-66
2023/10/24 10:56:50;;;;;;;13.18;11.45;;;12.20;99.90;;;12.72;100.00;96877.88;10329368;28;20223;-65
2023/10/24 11:02:16;;;;;;;13.35;12.15;;;12.30;99.90;;;12.84;100.00;96868.00;10324797;28;20235;-65
2023/10/24 11:07:54;;;;;;;12.13;10.98;;;12.40;99.90;;;12.93;100.00;96858.03;10327839;28;20238;-65
2023/10/24 11:12:58;;;;;;;13.25;11.98;;;12.50;99.90;;;12.98;100.00;96841.09;10326756;28;20733;-64
2023/10/24 11:18:05;;;;;;;11.70;10.63;;;12.50;99.90;;;13.05;100.00;96855.88;10332720;28;20227;-66
2023/10/24 11:23:09;;;;;;;14.60;13.35;;;12.50;99.90;;;13.10;100.00;96867.97;10330535;28;20227;-66
2023/10/24 11:28:13;;;;;;;16.33;14.73;;;12.60;99.90;;;13.09;100.00;96846.56;10333052;28;20757;-67
2023/10/24 11:33:18;;;;;;;15.18;13.65;;;12.60;99.90;;;13.11;100.00;96851.75;10331699;28;20695;-67
2023/10/24 11:38:21;;;;;;;13.00;11.70;;;12.60;99.90;;;13.12;100.00;96843.22;10333747;28;20321;-65
2023/10/24 11:43:25;;;;;;;13.27;11.90;;;12.60;99.90;;;13.14;100.00;96842.47;10331915;28;20227;-66
2023/10/24 11:48:29;;;;;;;14.30;12.80;;;12.60;99.90;;;13.17;100.00;96839.97;10333565;28;20235;-67
2023/10/24 11:53:34;;;;;;;14.02;12.73;;;12.60;99.90;;;13.21;100.00;96838.38;10332357;28;20226;-66
2023/10/24 11:58:37;;;;;;;15.57;13.98;;;12.60;99.90;;;13.21;100.00;96836.66;10337596;28;20230;-70
2023/10/24 12:03:45;;;;;;;17.80;16.00;;;12.60;99.90;;;13.21;100.00;96828.97;10336702;28;20748;-70
2023/10/24 12:08:50;;;;;;;14.63;13.40;;;12.60;99.90;;;13.23;100.00;96829.03;10329259;28;20717;-68
2023/10/24 12:13:53;;;;;;;16.83;15.23;;;12.60;99.90;;;13.23;100.00;96816.19;10339094;28;20240;-67
2023/10/24 12:18:58;;;;;;;19.35;17.15;;;12.60;99.90;;;13.24;100.00;96828.19;10340919;28;20233;-66
2023/10/24 12:24:01;;;;;;;16.30;14.80;;;12.60;99.90;;;13.20;100.00;96828.94;10330967;28;20230;-67
2023/10/24 12:29:09;;;;;;;24.05;21.83;;;12.60;99.90;;;13.20;100.00;96826.38;10335513;28;20654;-67
2023/10/24 12:34:14;;;;;;;23.63;21.58;;;12.60;99.90;;;13.22;100.00;96824.69;10342759;28;20226;-72
2023/10/24 12:39:19;;;;;;;23.17;21.17;;;12.60;99.90;;;13.20;100.00;96823.81;10334000;28;20231;-70
2023/10/24 12:44:22;;;;;;;22.67;20.48;;;12.60;99.90;;;13.21;100.00;96812.72;10335743;28;20235;-67
2023/10/24 12:49:27;;;;;;;25.23;22.92;;;12.70;99.90;;;13.23;100.00;96808.50;10335282;28;20218;-68
2023/10/24 12:54:30;;;;;;;25.83;23.25;;;12.70;99.90;;;13.19;100.00;96801.53;10335145;28;20238;-66
2023/10/24 12:59:33;;;;;;;21.05;19.05;;;12.60;99.90;;;13.28;100.00;96799.28;10344964;28;20918;-68
2023/10/24 13:04:37;;;;;;;19.73;17.88;;;12.70;99.90;;;13.28;100.00;96806.97;10345958;28;20224;-67
2023/10/24 13:09:44;;;;;;;20.48;18.30;;;12.70;99.90;;;13.26;100.00;96793.22;10335865;28;20281;-68
2023/10/24 13:14:47;;;;;;;19.52;17.67;;;12.70;99.90;;;13.31;100.00;96799.38;10335674;28;20235;-68
2023/10/24 13:19:52;;;;;;;18.77;17.02;;;12.70;99.90;;;13.35;100.00;96790.91;10332609;28;20727;-67
2023/10/24 13:24:55;;;;;;;19.48;17.67;;;12.80;99.90;;;13.46;100.00;96792.09;10333691;28;20713;-68
2023/10/24 13:29:58;;;;;;;18.25;16.38;;;12.90;99.90;;;13.53;100.00;96790.56;10325497;28;20231;-68
2023/10/24 13:35:08;;;;;;;20.42;18.55;;;12.90;99.90;;;13.56;100.00;96782.09;10329711;28;20233;-68
2023/10/24 13:40:14;;;;;;;17.35;15.75;;;13.00;99.90;;;13.57;100.00;96794.97;10332206;28;20235;-66
2023/10/24 13:45:17;;;;;;;18.05;16.42;;;13.00;99.90;;;13.59;100.00;96782.16;10331185;28;20231;-68
2023/10/24 13:50:22;;;;;;;17.15;15.55;;;13.00;99.90;;;13.53;100.00;96772.59;10327454;28;20853;-67
2023/10/24 13:55:25;;;;;;;14.98;13.57;;;12.90;99.90;;;13.54;100.00;96778.63;10331075;28;20238;-67
2023/10/24 14:00:28;;;;;;;16.23;14.82;;;13.00;99.90;;;13.56;100.00;96769.25;10338551;28;20238;-70
2023/10/24 14:05:33;;;;;;;14.60;13.25;;;13.00;99.90;;;13.53;100.00;96759.75;10327943;28;20229;-69
2023/10/24 14:10:36;;;;;;;12.55;11.38;;;12.90;99.90;;;13.51;100.00;96767.44;10337088;28;20222;-69
2023/10/24 14:15:39;;;;;;;14.57;13.07;;;12.90;99.90;;;13.50;100.00;96775.06;10330068;28;20229;-66
2023/10/24 14:20:44;;;;;;;15.73;14.23;;;12.90;99.90;;;13.45;100.00;96769.84;10346039;28;20316;-68
2023/10/24 14:25:47;;;;;;;12.80;11.60;;;12.90;99.90;;;13.45;100.00;96768.97;10343001;28;20272;-67
2023/10/24 14:30:50;;;;;;;12.13;11.02;;;12.90;99.90;;;13.42;100.00;96776.56;10348074;28;21096;-68
2023/10/24 14:35:54;;;;;;;14.23;12.75;;;12.90;99.90;;;13.44;100.00;96775.78;10343615;28;20248;-67
2023/10/24 14:40:59;;;;;;;13.57;12.38;;;12.90;99.90;;;13.47;100.00;96786.13;10342950;28;20218;-67
2023/10/24 14:46:02;;;;;;;13.68;12.40;;;12.90;99.90;;;13.49;100.00;96784.47;10352278;28;20240;-69
2023/10/24 14:51:06;;;;;;;12.85;11.63;;;12.90;99.90;;;13.50;100.00;96786.22;10349591;28;20222;-68
2023/10/24 14:56:09;;;;;;;10.60;9.70;;;12.90;99.90;;;13.47;100.00;96781.00;10354992;28;20253;-67
2023/10/24 15:01:15;;;;;;;15.63;14.13;;;12.90;99.90;;;13.54;100.00;96771.78;10352277;28;20697;-68
2023/10/24 15:06:20;;;;;;;17.73;15.95;;;12.90;99.90;;;13.57;100.00;96781.28;10357604;28;20673;-69
2023/10/24 15:11:23;;;;;;;22.65;20.52;;;12.90;99.90;;;13.51;100.00;96770.00;10353822;28;20222;-69
2023/10/24 15:16:26;;;;;;;22.58;19.17;;;12.90;99.90;;;13.42;100.00;96774.88;10341421;28;20234;-67
2023/10/24 15:21:34;;;;;;;17.02;15.30;;;12.90;99.90;;;13.37;100.00;96779.00;10334010;28;22046;-67
2023/10/24 15:26:37;;;;;;;15.05;13.65;;;12.80;99.90;;;13.38;100.00;96779.88;10326061;28;20318;-67
2023/10/24 15:31:40;;;;;;;13.05;11.85;;;12.90;99.90;;;13.39;100.00;96777.38;10332255;28;20231;-67
2023/10/24 15:36:48;;;;;;;12.00;10.90;;;12.90;99.90;;;13.39;100.00;96777.38;10326459;28;20270;-67
2023/10/24 15:41:51;;;;;;;11.77;10.68;;;12.90;99.90;;;13.38;100.00;96770.47;10328277;28;20238;-67
2023/10/24 15:46:54;;;;;;;11.35;10.35;;;12.80;99.90;;;13.36;100.00;96761.84;10323633;28;20231;-67
2023/10/24 15:51:59;;;;;;;10.60;9.60;;;12.80;99.90;;;13.33;100.00;96763.47;10321485;28;20235;-68
2023/10/24 15:57:02;;;;;;;13.50;12.32;;;12.80;99.90;;;13.36;100.00;96761.84;10331233;28;20226;-67
2023/10/24 16:02:05;;;;;;;13.55;12.38;;;12.80;99.90;;;13.28;100.00;96755.66;10328898;28;20230;-67
2023/10/24 16:07:10;;;;;;;10.32;9.45;;;12.70;99.90;;;13.26;100.00;96754.72;10327556;28;20230;-68
2023/10/24 16:12:13;;;;;;;10.10;9.13;;;12.60;99.90;;;13.06;100.00;96747.28;10318544;28;20231;-68
2023/10/24 16:17:16;;;;;;;8.75;8.00;;;12.50;99.90;;;13.00;100.00;96761.66;10322363;28;20628;-67
2023/10/24 16:22:20;;;;;;;8.43;7.63;;;12.40;99.90;;;12.96;100.00;96755.56;10321287;28;20292;-68
2023/10/24 16:27:24;;;;;;;7.72;7.03;;;12.40;99.90;;;12.96;100.00;96753.00;10320661;28;20234;-68
2023/10/24 16:32:27;;;;;;;10.52;9.70;;;12.40;99.90;;;12.86;100.00;96753.53;10330242;28;20233;-68
2023/10/24 16:37:32;;;;;;;14.40;13.20;;;12.30;99.90;;;12.85;100.00;96755.22;10332371;28;20242;-68
2023/10/24 16:42:35;;;;;;;11.45;10.50;;;12.30;99.90;;;12.85;100.00;96757.78;10328519;28;20231;-67
2023/10/24 16:47:38;;;;;;;12.00;11.00;;;12.20;99.90;;;12.84;100.00;96750.91;10326107;28;20235;-68
2023/10/24 16:52:43;;;;;;;13.85;12.65;;;12.30;99.90;;;12.84;100.00;96753.47;10326912;28;20234;-68
2023/10/24 16:57:46;;;;;;;18.08;15.77;;;12.20;99.90;;;12.84;100.00;96756.03;10323677;28;20757;-68
2023/10/24 17:02:51;;;;;;;12.60;11.30;;;12.30;99.90;;;12.85;100.00;96754.38;10325662;28;20246;-68
2023/10/24 17:07:56;;;;;;;10.82;9.90;;;12.30;99.90;;;12.79;100.00;96751.59;10329075;28;20752;-68
2023/10/24 17:12:59;;;;;;;11.20;10.15;;;12.20;99.90;;;12.73;100.00;96761.66;10322509;28;20241;-67
2023/10/24 17:18:02;;;;;;;57.42;43.53;;;12.10;99.90;;;12.71;100.00;96758.22;10318700;28;20241;-68
2023/10/24 17:23:07;;;;;;;75.93;56.33;;;12.10;99.90;;;12.68;100.00;96760.69;10322953;28;20716;-67
2023/10/24 17:28:10;;;;;;;14.57;13.07;;;12.10;99.90;;;12.57;100.00;96756.06;10319906;28;20229;-67
2023/10/24 17:33:22;;;;;;;12.95;11.75;;;12.00;99.90;;;12.56;100.00;96754.34;10320375;28;20234;-68
2023/10/24 17:38:27;;;;;;;13.98;12.57;;;12.00;99.90;;;12.57;100.00;96748.38;10325790;28;20618;-68
2023/10/24 17:43:30;;;;;;;9.35;8.45;;;12.00;99.90;;;12.61;100.00;96763.03;10323945;28;20238;-68
2023/10/24 17:48:34;;;;;;;10.20;9.40;;;12.00;99.90;;;12.57;100.00;96771.44;10321272;28;20230;-67
2023/10/24 17:53:39;;;;;;;12.45;11.20;;;12.00;99.90;;;12.61;100.00;96763.03;10321532;28;20640;-68
2023/10/24 17:58:43;;;;;;;16.67;14.98;;;12.00;99.90;;;12.63;100.00;96774.19;10321716;28;20600;-69
2023/10/24 18:03:46;;;;;;;14.68;13.38;;;12.10;99.90;;;12.65;100.00;96783.63;10326088;28;20736;-68
2023/10/24 18:08:52;;;;;;;21.92;19.83;;;12.00;99.90;;;12.67;100.00;96784.56;10319920;28;20234;-68
2023/10/24 18:13:56;;;;;;;17.85;16.17;;;12.10;99.90;;;12.66;100.00;96796.50;10322388;28;20308;-68
2023/10/24 18:19:01;;;;;;;13.63;12.32;;;12.00;99.90;;;12.60;100.00;96794.63;10320798;28;20714;-67
2023/10/24 18:24:07;;;;;;;10.43;9.43;;;12.00;99.90;;;12.68;100.00;96806.81;10324238;28;20313;-67
2023/10/24 18:29:10;;;;;;;10.50;9.60;;;12.00;99.90;;;12.67;100.00;96812.75;10320252;28;20237;-67
2023/10/24 18:34:13;;;;;;;11.45;10.43;;;12.00;99.90;;;12.58;100.00;96808.19;10317615;28;20242;-67
2023/10/24 18:39:18;;;;;;;11.57;10.57;;;12.00;99.90;;;12.52;100.00;96813.13;10323015;28;20241;-68
2023/10/24 18:44:21;;;;;;;10.63;9.65;;;12.00;99.90;;;12.47;100.00;96815.53;10321336;28;20229;-67
2023/10/24 18:49:24;;;;;;;11.75;10.55;;;12.00;99.90;;;12.50;100.00;96822.47;10327197;28;20274;-67
2023/10/24 18:54:30;;;;;;;8.40;7.60;;;11.90;99.90;;;12.51;100.00;96819.97;10321449;28;20237;-68
2023/10/24 18:59:33;;;;;;;10.52;9.63;;;11.90;99.90;;;12.51;100.00;96824.22;10328101;28;20226;-68
2023/10/24 19:04:37;;;;;;;9.43;8.65;;;11.90;99.90;;;12.48;100.00;96837.81;10325354;28;20223;-68
2023/10/24 19:09:41;;;;;;;9.80;8.80;;;11.80;99.90;;;12.47;100.00;96828.34;10321723;28;20229;-67
2023/10/24 19:14:45;;;;;;;9.63;8.25;;;11.80;99.90;;;12.40;100.00;96845.22;10328825;28;20258;-68
2023/10/24 19:19:49;;;;;;;9.20;8.40;;;11.80;99.90;;;12.36;100.00;96842.50;10337325;28;20246;-68
2023/10/24 19:24:55;;;;;;;9.88;8.95;;;11.80;99.90;;;12.30;100.00;96844.88;10333345;28;20227;-68
2023/10/24 19:29:59;;;;;;;10.10;9.18;;;11.80;99.90;;;12.30;100.00;96850.84;10322631;28;20238;-68
2023/10/24 19:35:04;;;;;;;10.68;9.63;;;11.70;99.90;;;12.30;100.00;96847.41;10326181;28;20250;-68
2023/10/24 19:40:10;;;;;;;12.13;10.98;;;11.70;99.90;;;12.24;100.00;96847.22;10332443;28;20238;-68
2023/10/24 19:45:15;;;;;;;13.43;12.07;;;11.60;99.90;;;12.20;100.00;96856.50;10330700;28;20248;-68
2023/10/24 19:50:19;;;;;;;14.90;13.60;;;11.60;99.90;;;12.08;100.00;96856.94;10330191;28;20234;-68
2023/10/24 19:55:24;;;;;;;15.02;13.52;;;11.50;99.90;;;12.09;100.00;96861.25;10329504;28;20616;-68
2023/10/24 20:00:36;;;;;;;14.05;12.80;;;11.50;99.90;;;12.12;100.00;96866.47;10336788;28;20226;-68
2023/10/24 20:05:41;;;;;;;15.02;13.43;;;11.50;99.90;;;12.12;100.00;96869.03;10330664;28;20231;-68
2023/10/24 20:10:46;;;;;;;14.80;13.48;;;11.50;99.90;;;12.10;100.00;96863.00;10335279;28;20229;-68
2023/10/24 20:16:13;;;;;;;14.05;12.85;;;11.50;99.90;;;12.13;100.00;96864.78;10335978;28;20256;-68
2023/10/24 20:21:17;;;;;;;11.95;10.88;;;11.60;99.90;;;12.18;100.00;96870.94;10334457;28;20264;-70
2023/10/24 20:26:24;;;;;;;12.70;11.50;;;11.60;99.90;;;12.17;100.00;96872.63;10330274;28;20230;-69
2023/10/24 20:31:27;;;;;;;12.85;11.70;;;11.60;99.90;;;12.14;100.00;96871.66;10334189;28;20509;-68
2023/10/24 20:36:30;;;;;;;15.38;13.85;;;11.60;99.90;;;12.10;100.00;96875.81;10336016;28;20234;-68
2023/10/24 20:41:35;;;;;;;14.70;13.40;;;11.50;99.90;;;12.10;100.00;96880.03;10336065;28;20256;-68